LNG Dream — C6VO5 — position and weather

sailwx.info

Track history (hours):
 
Tides and Currents Weather Stations Pressure Air Temp Water Temp Dewpoint Dewpoint Depression Visibility Wind Speed Wind Dir Waves Ship Positions

LNG Dream

Last reported at 2017-Feb-27 10:14 UTC. Time now 2017-Mar-01 17:54 UTC.
Position N 33°53' E 134°54'.

Length 289.6 m; beam 49 m.

Type: Ship (hazmat cat A). MMSI: 309065000.

Date/timePositionNaut miles runAvg speedWind from/ knotsBaromVisibWave heightAir tempDewpointWater temp
2017-Feb-27 10:14N 33°53' E 134°54'913.5
2017-Feb-27 09:32N 34°02' E 134°55'1413.7
2017-Feb-27 08:33N 34°16' E 134°58'1413.9
2017-Feb-27 07:33N 34°28' E 135°05'9 8.9
2017-Feb-27 06:33N 34°37' E 135°01'1313.2
2017-Feb-27 05:32N 34°33' E 134°46'1311.5
2017-Feb-27 04:23N 34°46' E 134°41'8 0.3
2017-Feb-26 05:24N 34°38' E 134°42'910.3
2017-Feb-26 04:33N 34°35' E 134°52'1110.8
2017-Feb-26 03:33N 34°35' E 135°05'8 8.0
2017-Feb-26 02:33N 34°28' E 135°06'1212.1
2017-Feb-26 01:34N 34°17' E 134°59'1110.8
2017-Feb-26 00:33N 34°06' E 135°00'1111.3
2017-Feb-25 23:33N 33°55' E 134°59'  
Track history (hours):
 
Tides and Currents Weather Stations Pressure Air Temp Water Temp Dewpoint Dewpoint Depression Visibility Wind Speed Wind Dir Waves Ship Positions

LNG Dream

Last reported at 2017-Feb-27 10:14 UTC. Time now 2017-Mar-01 17:54 UTC.
Position N 33°53' E 134°54'.

Length 289.6 m; beam 49 m.

Type: Ship (hazmat cat A). MMSI: 309065000.

Date/timePositionNaut miles runAvg speedWind from/ knotsBaromVisibWave heightAir tempDewpointWater temp
2017-Feb-27 10:14N 33°53' E 134°54'913.5
2017-Feb-27 09:32N 34°02' E 134°55'1413.7
2017-Feb-27 08:33N 34°16' E 134°58'1413.9
2017-Feb-27 07:33N 34°28' E 135°05'9 8.9
2017-Feb-27 06:33N 34°37' E 135°01'1313.2
2017-Feb-27 05:32N 34°33' E 134°46'1311.5
2017-Feb-27 04:23N 34°46' E 134°41'8 0.3
2017-Feb-26 05:24N 34°38' E 134°42'910.3
2017-Feb-26 04:33N 34°35' E 134°52'1110.8
2017-Feb-26 03:33N 34°35' E 135°05'8 8.0
2017-Feb-26 02:33N 34°28' E 135°06'1212.1
2017-Feb-26 01:34N 34°17' E 134°59'1110.8
2017-Feb-26 00:33N 34°06' E 135°00'1111.3
2017-Feb-25 23:33N 33°55' E 134°59'  

Dump ship's entire track history